Amagon, Arkansas
Current Conditions -  °F | °C
As of 2:56 AM on Saturday 01 Nov 2014 (Local Time) from KM19 Reporting Station
Clear Clear  
Wind Chill: 25°   Ceiling: Unl
Heat Index: 33°   Visibility: 10mi
Dew Point: 24°   Wind: 9mph
Humidity: 70%   Direction: 330°NNW
Pressure: 30.4"   Gusts: NA
Location:  35.56°N, 91.11°W
Report Text: KM19 010756Z AUTO 33008KT 10SM CLR 01/M04 A3040 RMK AO2 T00051044 SLP294
Loading
Personal Weather Stations






























Interactive Weather Map
Tropical Storm Tracking
New forecast layout! Learn more

10-Day Weather Forecast

Advertisements
Track Severe Weather on mobile